Time;durP1;ratioP1;P1;durP2;ratioP2;P2;SDS_P1;SDS_P2;PMS_P1;PMS_P2;Temp;Humidity;BMP_temperature;BMP_pressure;BME280_temperature;BME280_humidity;BME280_pressure;Samples;Min_cycle;Max_cycle;Signal;HPM_P1;HPM_P2
2023/07/10 00:02:09;;;;;;;;;;;;;;;22.26;27.88;98148.41;4939567;29;1084;-76
2023/07/10 00:04:34;;;;;;;;;;;;;;;22.13;27.81;98153.25;4908173;29;1910;-76
2023/07/10 00:07:00;;;;;;;;;;;;;;;22.20;28.18;98147.38;4955370;29;1030;-76
2023/07/10 00:09:25;;;;;;;;;;;;;;;22.51;27.58;98144.91;4939829;29;837;-75
2023/07/10 00:11:51;;;;;;;;;;;;;;;22.29;28.05;98141.88;4923926;29;1239;-76
2023/07/10 00:14:17;;;;;;;;;;;;;;;22.31;27.75;98144.25;4953846;29;971;-76
2023/07/10 00:16:43;;;;;;;;;;;;;;;22.26;27.69;98139.91;4942714;29;1301;-76
2023/07/10 00:19:11;;;;;;;;;;;;;;;22.27;27.60;98144.34;4969044;28;1188;-76
2023/07/10 00:21:37;;;;;;;;;;;;;;;22.40;27.39;98143.63;4979274;28;1151;-75
2023/07/10 00:24:03;;;;;;;;;;;;;;;22.45;27.56;98140.25;4945694;28;1397;-76
2023/07/10 00:26:28;;;;;;;;;;;;;;;22.21;28.09;98137.63;4978622;28;1899;-75
2023/07/10 00:28:55;;;;;;;;;;;;;;;22.26;27.65;98134.25;4961876;28;1220;-76
2023/07/10 00:31:21;;;;;;;;;;;;;;;22.05;28.28;98144.09;4978603;28;875;-76
2023/07/10 00:33:49;;;;;;;;;;;;;;;22.14;27.96;98137.81;4978597;28;1152;-76
2023/07/10 00:36:31;;;;;;;;;;;;;;;22.29;27.64;98133.38;4942459;29;1136;-75
2023/07/10 00:38:57;;;;;;;;;;;;;;;22.31;27.40;98132.91;4942446;29;921;-76
2023/07/10 00:41:22;;;;;;;;;;;;;;;22.49;27.20;98129.59;4926452;29;1172;-76
2023/07/10 00:43:49;;;;;;;;;;;;;;;22.20;27.77;98135.25;4926518;29;1180;-76
2023/07/10 00:46:19;;;;;;;;;;;;;;;21.90;28.03;98127.91;4910406;29;1914;-76
2023/07/10 00:48:46;;;;;;;;;;;;;;;22.25;27.73;98129.81;4926326;29;1021;-75
2023/07/10 00:51:23;;;;;;;;;;;;;;;22.32;27.54;98126.78;4922750;29;1140;-76
2023/07/10 00:53:49;;;;;;;;;;;;;;;22.27;27.63;98121.66;4935436;29;1200;-76
2023/07/10 00:56:17;;;;;;;;;;;;;;;22.25;27.53;98132.66;4935788;29;1242;-77
2023/07/10 00:58:45;;;;;;;;;;;;;;;22.05;27.96;98129.13;4919545;29;1129;-77
2023/07/10 01:01:13;;;;;;;;;;;;;;;22.29;27.47;98116.34;4919905;29;957;-76
2023/07/10 01:03:39;;;;;;;;;;;;;;;22.19;27.48;98128.78;4935309;29;1061;-76
2023/07/10 01:06:13;;;;;;;;;;;;;;;22.03;27.84;98125.94;4920553;29;1964;-76
2023/07/10 01:08:40;;;;;;;;;;;;;;;22.14;27.81;98132.16;4957442;29;1068;-76
2023/07/10 01:11:05;;;;;;;;;;;;;;;22.14;27.39;98126.50;4957851;28;1264;-76
2023/07/10 01:13:31;;;;;;;;;;;;;;;22.38;27.06;98129.06;4960418;28;1358;-76
2023/07/10 01:15:56;;;;;;;;;;;;;;;22.18;27.33;98126.41;4960671;28;944;-76
2023/07/10 01:18:24;;;;;;;;;;;;;;;22.27;27.26;98126.53;4960443;28;933;-76
2023/07/10 01:20:50;;;;;;;;;;;;;;;22.15;27.45;98122.41;4960988;28;1028;-76
2023/07/10 01:23:16;;;;;;;;;;;;;;;22.33;27.50;98122.72;4960212;28;1163;-76
2023/07/10 01:25:48;;;;;;;;;;;;;;;22.26;27.56;98122.91;4960391;28;1924;-75
2023/07/10 01:28:14;;;;;;;;;;;;;;;22.28;27.39;98126.13;4966941;28;1244;-77
2023/07/10 01:30:41;;;;;;;;;;;;;;;22.28;27.14;98120.44;4995983;28;910;-76
2023/07/10 01:33:07;;;;;;;;;;;;;;;22.38;27.21;98129.06;4947903;28;1113;-76
2023/07/10 01:35:33;;;;;;;;;;;;;;;22.21;27.42;98131.97;4979448;28;1023;-76
2023/07/10 01:37:58;;;;;;;;;;;;;;;22.31;27.24;98135.75;4979715;28;1262;-76
2023/07/10 01:40:27;;;;;;;;;;;;;;;22.19;27.44;98134.44;4978770;28;974;-76
2023/07/10 01:42:55;;;;;;;;;;;;;;;22.39;27.21;98130.69;4963353;28;946;-76
2023/07/10 01:45:20;;;;;;;;;;;;;;;22.22;27.55;98138.41;4977154;28;1910;-76
2023/07/10 01:47:47;;;;;;;;;;;;;;;22.28;27.39;98137.44;4977634;28;982;-76
2023/07/10 01:50:14;;;;;;;;;;;;;;;22.48;26.76;98139.31;4977558;28;928;-75
2023/07/10 01:52:39;;;;;;;;;;;;;;;22.22;27.05;98127.06;4945405;28;1101;-76
2023/07/10 01:55:05;;;;;;;;;;;;;;;22.29;26.98;98126.91;4977104;28;1167;-76
2023/07/10 01:57:31;;;;;;;;;;;;;;;22.45;27.01;98128.91;4978456;28;970;-76
2023/07/10 01:59:56;;;;;;;;;;;;;;;22.21;27.20;98140.47;4977209;28;1198;-76
2023/07/10 02:02:22;;;;;;;;;;;;;;;22.28;26.95;98131.78;4977042;28;1105;-76
2023/07/10 02:04:47;;;;;;;;;;;;;;;22.34;27.10;98135.66;4977060;28;1977;-76
2023/07/10 02:07:13;;;;;;;;;;;;;;;22.34;27.13;98141.31;4976905;28;1079;-76
2023/07/10 02:09:38;;;;;;;;;;;;;;;22.14;27.37;98143.50;4945103;28;1378;-76
2023/07/10 02:12:04;;;;;;;;;;;;;;;22.00;27.59;98138.16;4976809;28;1279;-76
2023/07/10 02:14:30;;;;;;;;;;;;;;;22.22;27.09;98133.53;4956114;29;1207;-75
2023/07/10 02:16:55;;;;;;;;;;;;;;;22.30;27.18;98145.50;4956617;28;1175;-76
2023/07/10 02:19:21;;;;;;;;;;;;;;;22.29;27.00;98150.38;4898874;29;978;-76
2023/07/10 02:21:46;;;;;;;;;;;;;;;21.40;27.42;98013.06;4899498;29;914;-75
2023/07/10 02:24:12;;;;;;;;;;;;;;;22.15;27.37;98156.41;4917757;29;1255;-76
2023/07/10 02:26:39;;;;;;;;;;;;;;;22.29;27.07;98144.72;4918422;29;1971;-76
2023/07/10 02:29:04;;;;;;;;;;;;;;;22.28;27.20;98137.44;4918143;29;1185;-76
2023/07/10 02:31:30;;;;;;;;;;;;;;;22.18;27.26;98144.19;4918241;29;987;-76
2023/07/10 02:33:56;;;;;;;;;;;;;;;22.23;27.31;98146.50;4902423;29;1370;-76
2023/07/10 02:36:22;;;;;;;;;;;;;;;22.35;26.88;98154.25;4901993;29;1384;-76
2023/07/10 02:38:47;;;;;;;;;;;;;;;22.45;26.83;98157.25;4902324;29;1247;-76
2023/07/10 02:41:13;;;;;;;;;;;;;;;22.20;27.14;98153.03;4918406;29;1067;-75
2023/07/10 02:43:38;;;;;;;;;;;;;;;22.13;27.24;98158.13;4902381;29;1142;-76
2023/07/10 02:46:04;;;;;;;;;;;;;;;22.26;27.10;98153.28;4930502;29;1986;-76
2023/07/10 02:48:29;;;;;;;;;;;;;;;22.07;27.21;98155.78;4956495;29;865;-76
2023/07/10 02:50:55;;;;;;;;;;;;;;;22.32;27.00;98160.81;4958131;28;1032;-76
2023/07/10 02:53:21;;;;;;;;;;;;;;;22.21;27.23;98154.63;4959976;29;1137;-76
2023/07/10 02:55:46;;;;;;;;;;;;;;;22.15;27.47;98164.13;4930097;28;1165;-76
2023/07/10 02:58:12;;;;;;;;;;;;;;;22.30;27.15;98162.50;4979357;28;1640;-76
2023/07/10 03:00:37;;;;;;;;;;;;;;;22.16;27.22;98163.66;4980162;28;1136;-75
2023/07/10 03:03:03;;;;;;;;;;;;;;;22.06;27.34;98164.72;4979890;28;796;-76
2023/07/10 03:05:28;;;;;;;;;;;;;;;22.22;27.56;98172.44;4981039;28;1903;-76
2023/07/10 03:07:54;;;;;;;;;;;;;;;22.33;27.04;98159.59;4979756;28;906;-76
2023/07/10 03:10:19;;;;;;;;;;;;;;;22.27;27.12;98169.84;4979499;28;914;-76
2023/07/10 03:12:45;;;;;;;;;;;;;;;22.16;27.50;98168.53;4979912;28;1183;-76
2023/07/10 03:15:10;;;;;;;;;;;;;;;22.26;27.63;98162.59;4981047;28;932;-76
2023/07/10 03:17:36;;;;;;;;;;;;;;;22.29;27.25;98160.91;4979567;28;910;-77
2023/07/10 03:20:02;;;;;;;;;;;;;;;22.26;27.27;98168.25;4981017;28;774;-77
2023/07/10 03:22:27;;;;;;;;;;;;;;;22.27;27.59;98164.19;4986018;28;1089;-77
2023/07/10 03:24:53;;;;;;;;;;;;;;;22.26;27.70;98164.63;4962132;28;1898;-77
2023/07/10 03:27:19;;;;;;;;;;;;;;;22.28;27.51;98174.31;4962393;28;1154;-76
2023/07/10 03:29:44;;;;;;;;;;;;;;;22.39;27.48;98159.03;4962008;28;924;-76
2023/07/10 03:32:09;;;;;;;;;;;;;;;22.03;27.97;98160.75;4946485;28;918;-77
2023/07/10 03:34:35;;;;;;;;;;;;;;;22.19;27.68;98171.28;4978690;28;923;-76
2023/07/10 03:37:02;;;;;;;;;;;;;;;22.15;27.92;98173.41;4962659;28;1062;-76
2023/07/10 03:39:27;;;;;;;;;;;;;;;22.38;27.57;98175.22;4978750;28;1073;-77
2023/07/10 03:41:53;;;;;;;;;;;;;;;22.44;27.54;98173.47;4930179;28;977;-77
2023/07/10 03:44:18;;;;;;;;;;;;;;;22.39;27.31;98176.06;4962067;28;972;-76
2023/07/10 03:46:44;;;;;;;;;;;;;;;22.28;27.61;98176.34;4962134;28;1911;-76
2023/07/10 03:49:09;;;;;;;;;;;;;;;22.16;27.94;98186.34;4978259;28;1063;-76
2023/07/10 03:51:35;;;;;;;;;;;;;;;22.25;27.95;98183.69;4962262;28;999;-76
2023/07/10 03:54:00;;;;;;;;;;;;;;;22.22;27.96;98195.91;4939759;29;1170;-76
2023/07/10 03:56:26;;;;;;;;;;;;;;;21.97;28.44;98190.06;4923478;29;970;-76
2023/07/10 03:58:51;;;;;;;;;;;;;;;22.22;27.68;98190.22;4924142;29;920;-76
2023/07/10 04:01:17;;;;;;;;;;;;;;;22.33;27.91;98195.66;4940995;28;971;-77
2023/07/10 04:03:43;;;;;;;;;;;;;;;22.38;27.89;98191.44;4942022;29;792;-76
2023/07/10 04:06:10;;;;;;;;;;;;;;;22.25;27.79;98200.69;4942973;29;1911;-76
2023/07/10 04:08:36;;;;;;;;;;;;;;;22.24;28.18;98199.09;4942701;29;949;-76
2023/07/10 04:11:04;;;;;;;;;;;;;;;22.17;28.22;98210.59;4958302;29;931;-77
2023/07/10 04:13:29;;;;;;;;;;;;;;;22.25;28.01;98206.34;4958322;29;911;-76
2023/07/10 04:16:05;;;;;;;;;;;;;;;22.18;28.19;98200.88;4942589;29;1181;-77
2023/07/10 04:18:34;;;;;;;;;;;;;;;22.37;28.10;98202.00;4958078;29;984;-76
2023/07/10 04:21:00;;;;;;;;;;;;;;;22.35;28.12;98199.63;4938965;29;900;-76
2023/07/10 04:23:26;;;;;;;;;;;;;;;22.17;28.34;98204.94;4938898;29;1157;-76
2023/07/10 04:25:51;;;;;;;;;;;;;;;22.42;28.17;98209.16;4955264;29;1915;-76
2023/07/10 04:28:17;;;;;;;;;;;;;;;22.42;28.11;98203.50;4958043;29;1053;-76
2023/07/10 04:30:44;;;;;;;;;;;;;;;22.47;28.13;98197.28;4942051;29;1134;-76
2023/07/10 04:33:11;;;;;;;;;;;;;;;22.40;28.20;98203.94;4942071;29;1015;-76
2023/07/10 04:35:37;;;;;;;;;;;;;;;22.44;28.26;98201.81;4958241;29;922;-77
2023/07/10 04:38:03;;;;;;;;;;;;;;;22.42;28.31;98192.94;4958044;29;1015;-77
2023/07/10 04:40:28;;;;;;;;;;;;;;;22.46;28.34;98196.50;4958112;29;922;-76
2023/07/10 04:42:54;;;;;;;;;;;;;;;22.61;27.90;98199.75;4973952;28;985;-77
2023/07/10 04:45:20;;;;;;;;;;;;;;;22.62;27.95;98207.00;4957959;29;1919;-77
2023/07/10 04:47:45;;;;;;;;;;;;;;;22.55;28.17;98201.53;4957986;29;1055;-76
2023/07/10 04:50:11;;;;;;;;;;;;;;;22.51;28.24;98200.81;4957799;29;1047;-77
2023/07/10 04:52:36;;;;;;;;;;;;;;;22.48;28.48;98201.69;4973871;28;980;-77
2023/07/10 04:55:02;;;;;;;;;;;;;;;22.50;28.55;98193.56;4979191;28;847;-76
2023/07/10 04:57:28;;;;;;;;;;;;;;;22.30;28.55;98202.19;4978979;28;1038;-77
2023/07/10 04:59:53;;;;;;;;;;;;;;;22.54;28.13;98195.06;4978382;28;966;-76
2023/07/10 05:02:19;;;;;;;;;;;;;;;22.55;28.31;98193.81;4979198;28;888;-76
2023/07/10 05:04:45;;;;;;;;;;;;;;;22.59;28.15;98196.56;4977688;28;941;-77
2023/07/10 05:07:10;;;;;;;;;;;;;;;22.53;28.46;98192.66;4977940;28;969;-76
2023/07/10 05:09:36;;;;;;;;;;;;;;;22.60;28.30;98186.81;4977740;28;1085;-76
2023/07/10 05:12:01;;;;;;;;;;;;;;;22.60;28.38;98181.13;4977906;28;1119;-76
2023/07/10 05:14:27;;;;;;;;;;;;;;;22.58;28.32;98183.59;4977988;28;1107;-76
2023/07/10 05:16:52;;;;;;;;;;;;;;;22.57;28.34;98188.47;4977973;28;1233;-76
2023/07/10 05:19:18;;;;;;;;;;;;;;;22.60;28.50;98192.47;4977830;28;859;-76
2023/07/10 05:21:43;;;;;;;;;;;;;;;22.44;28.76;98192.53;4961674;28;1136;-76
2023/07/10 05:24:09;;;;;;;;;;;;;;;22.30;29.20;98202.19;4997176;28;1030;-77
2023/07/10 05:26:34;;;;;;;;;;;;;;;22.65;28.53;98200.44;4980772;28;1985;-77
2023/07/10 05:28:59;;;;;;;;;;;;;;;22.70;28.41;98207.59;4997205;28;1127;-77
2023/07/10 05:31:25;;;;;;;;;;;;;;;22.39;29.12;98201.56;4980898;28;882;-77
2023/07/10 05:33:50;;;;;;;;;;;;;;;22.50;28.68;98199.25;4956777;29;1401;-77
2023/07/10 05:36:16;;;;;;;;;;;;;;;22.44;29.09;98213.16;4909391;29;1238;-76
2023/07/10 05:38:42;;;;;;;;;;;;;;;22.72;28.63;98210.78;4940775;29;946;-76
2023/07/10 05:41:08;;;;;;;;;;;;;;;22.47;29.12;98211.47;4925285;29;988;-77
2023/07/10 05:43:34;;;;;;;;;;;;;;;22.60;28.90;98209.50;4940883;29;1153;-76
2023/07/10 05:45:59;;;;;;;;;;;;;;;22.55;28.78;98208.00;4940827;29;1973;-77
2023/07/10 05:48:25;;;;;;;;;;;;;;;22.59;28.91;98207.91;4924803;29;914;-76
2023/07/10 05:50:50;;;;;;;;;;;;;;;22.49;28.80;98215.47;4921845;29;1059;-76
2023/07/10 05:53:16;;;;;;;;;;;;;;;22.49;28.80;98220.34;4937242;29;984;-76
2023/07/10 05:55:48;;;;;;;;;;;;;;;22.67;28.93;98209.28;4937323;29;908;-76
2023/07/10 05:58:14;;;;;;;;;;;;;;;22.47;29.07;98211.47;4953298;29;1058;-76
2023/07/10 06:00:40;;;;;;;;;;;;;;;22.38;29.19;98208.47;4953345;29;920;-77
2023/07/10 06:03:05;;;;;;;;;;;;;;;22.39;29.02;98210.06;4921272;29;936;-77
2023/07/10 06:05:31;;;;;;;;;;;;;;;22.72;28.94;98205.91;4967813;28;1902;-77
2023/07/10 06:07:56;;;;;;;;;;;;;;;22.46;29.34;98215.53;4943596;28;977;-77
2023/07/10 06:10:22;;;;;;;;;;;;;;;22.71;28.77;98207.16;4944058;28;972;-76
2023/07/10 06:12:47;;;;;;;;;;;;;;;22.64;29.20;98204.53;4975737;28;995;-76
2023/07/10 06:15:13;;;;;;;;;;;;;;;22.49;29.06;98209.00;4959444;28;926;-77
2023/07/10 06:17:38;;;;;;;;;;;;;;;22.63;29.06;98208.59;4943928;28;1210;-76
2023/07/10 06:20:04;;;;;;;;;;;;;;;22.53;29.12;98218.19;4975691;28;970;-76
2023/07/10 06:22:30;;;;;;;;;;;;;;;22.49;29.40;98206.94;4954715;28;1067;-76
2023/07/10 06:24:55;;;;;;;;;;;;;;;22.53;29.27;98204.00;4942899;28;1989;-77
2023/07/10 06:27:21;;;;;;;;;;;;;;;22.50;29.40;98205.69;4956233;29;947;-77
2023/07/10 06:29:46;;;;;;;;;;;;;;;22.75;28.81;98205.03;4956530;29;956;-76
2023/07/10 06:32:12;;;;;;;;;;;;;;;22.78;28.90;98203.31;4936755;29;941;-76
2023/07/10 06:34:37;;;;;;;;;;;;;;;22.71;28.97;98197.84;4936649;29;986;-77
2023/07/10 06:37:03;;;;;;;;;;;;;;;22.47;29.28;98200.13;4917767;29;929;-77
2023/07/10 06:39:28;;;;;;;;;;;;;;;22.57;29.29;98204.69;4902344;29;976;-76
2023/07/10 06:41:54;;;;;;;;;;;;;;;22.70;29.05;98202.72;4902565;29;997;-76
2023/07/10 06:44:20;;;;;;;;;;;;;;;22.72;29.31;98208.75;4902400;29;1100;-76
2023/07/10 06:46:45;;;;;;;;;;;;;;;22.80;29.03;98204.47;4901984;29;1984;-76
2023/07/10 06:49:11;;;;;;;;;;;;;;;22.83;29.03;98200.72;4902191;29;1326;-76
2023/07/10 06:51:37;;;;;;;;;;;;;;;22.76;29.15;98206.59;4902058;29;925;-77
2023/07/10 06:54:03;;;;;;;;;;;;;;;22.64;29.35;98198.84;4886520;29;1230;-75
2023/07/10 06:56:29;;;;;;;;;;;;;;;22.69;29.37;98206.00;4898816;29;1080;-77
2023/07/10 06:58:54;;;;;;;;;;;;;;;22.59;29.37;98196.56;4870864;29;994;-76
2023/07/10 07:01:20;;;;;;;;;;;;;;;22.51;29.82;98200.81;4899442;29;945;-76
2023/07/10 07:03:45;;;;;;;;;;;;;;;22.42;30.08;98201.44;4910895;29;1385;-76
2023/07/10 07:06:11;;;;;;;;;;;;;;;22.66;29.59;98195.56;4920966;29;2069;-76
2023/07/10 07:08:36;;;;;;;;;;;;;;;22.70;29.58;98196.25;4950636;29;1064;-77
2023/07/10 07:11:02;;;;;;;;;;;;;;;22.74;29.83;98194.91;4972221;28;1143;-76
2023/07/10 07:13:27;;;;;;;;;;;;;;;22.64;29.72;98193.19;4971915;28;1090;-76
2023/07/10 07:15:53;;;;;;;;;;;;;;;22.74;29.69;98191.25;4955831;29;1063;-76
2023/07/10 07:18:20;;;;;;;;;;;;;;;22.92;29.45;98197.28;4971850;28;946;-76
2023/07/10 07:20:45;;;;;;;;;;;;;;;22.60;30.04;98198.16;4956089;29;1156;-76
2023/07/10 07:23:11;;;;;;;;;;;;;;;22.95;29.55;98187.03;4917058;29;1057;-76
2023/07/10 07:25:36;;;;;;;;;;;;;;;23.00;29.40;98192.16;4870649;29;1981;-76
2023/07/10 07:28:03;;;;;;;;;;;;;;;22.54;30.07;98188.59;4910757;29;941;-77
2023/07/10 07:30:29;;;;;;;;;;;;;;;22.56;30.22;98189.72;4917240;29;960;-76
2023/07/10 07:32:55;;;;;;;;;;;;;;;22.85;29.62;98188.94;4917275;29;1193;-76
2023/07/10 07:35:21;;;;;;;;;;;;;;;22.79;29.96;98177.31;4917467;29;983;-76
2023/07/10 07:37:47;;;;;;;;;;;;;;;22.80;29.83;98178.16;4931276;29;1097;-77
2023/07/10 07:40:12;;;;;;;;;;;;;;;22.68;29.93;98188.19;4917385;29;954;-77
2023/07/10 07:42:38;;;;;;;;;;;;;;;22.68;30.12;98171.16;4917648;29;1438;-77
2023/07/10 07:45:04;;;;;;;;;;;;;;;22.75;30.00;98176.66;4917460;29;1907;-77
2023/07/10 07:47:30;;;;;;;;;;;;;;;23.08;29.52;98183.00;4920426;29;1321;-77
2023/07/10 07:49:56;;;;;;;;;;;;;;;22.67;30.27;98180.91;4904880;29;945;-76
2023/07/10 07:52:21;;;;;;;;;;;;;;;22.60;30.24;98181.13;4904818;29;1016;-77
2023/07/10 07:54:48;;;;;;;;;;;;;;;22.61;30.27;98160.81;4933585;29;943;-77
2023/07/10 07:57:14;;;;;;;;;;;;;;;22.78;29.93;98170.06;4942354;29;1153;-77
2023/07/10 07:59:39;;;;;;;;;;;;;;;22.87;29.74;98178.72;4942389;29;1193;-77
2023/07/10 08:02:05;;;;;;;;;;;;;;;22.94;29.81;98171.28;4904542;29;1213;-77
2023/07/10 08:04:31;;;;;;;;;;;;;;;22.83;30.01;98171.56;4904373;29;905;-76
2023/07/10 08:06:56;;;;;;;;;;;;;;;22.86;29.73;98168.63;4920091;29;2258;-76
2023/07/10 08:09:22;;;;;;;;;;;;;;;22.86;29.59;98168.63;4889159;29;1223;-76
2023/07/10 08:11:47;;;;;;;;;;;;;;;22.75;30.21;98165.31;4920320;29;952;-77
2023/07/10 08:14:13;;;;;;;;;;;;;;;22.93;29.66;98166.84;4936196;29;970;-77
2023/07/10 08:16:38;;;;;;;;;;;;;;;22.93;29.68;98159.13;4935952;29;1011;-77
2023/07/10 08:19:04;;;;;;;;;;;;;;;22.74;30.16;98160.06;4919904;29;1275;-76
2023/07/10 08:21:29;;;;;;;;;;;;;;;23.00;29.78;98163.78;4936109;29;1030;-76
2023/07/10 08:23:55;;;;;;;;;;;;;;;22.92;29.83;98156.75;4939107;29;1028;-77
2023/07/10 08:26:20;;;;;;;;;;;;;;;22.91;29.97;98160.84;4957912;29;1902;-77
2023/07/10 08:28:46;;;;;;;;;;;;;;;22.74;30.17;98151.56;4958222;29;1211;-76
2023/07/10 08:31:11;;;;;;;;;;;;;;;22.93;29.79;98156.28;4958018;29;1105;-77
2023/07/10 08:33:37;;;;;;;;;;;;;;;22.92;29.85;98151.06;4941862;29;1022;-77
2023/07/10 08:36:03;;;;;;;;;;;;;;;22.59;30.34;98156.84;4958039;28;1263;-77
2023/07/10 08:38:30;;;;;;;;;;;;;;;22.75;29.85;98158.84;4925525;28;980;-76
2023/07/10 08:40:57;;;;;;;;;;;;;;;22.94;29.79;98148.56;4945331;28;967;-76
2023/07/10 08:43:22;;;;;;;;;;;;;;;22.97;29.78;98153.34;4961235;28;981;-76
2023/07/10 08:45:48;;;;;;;;;;;;;;;23.06;29.57;98156.34;4977091;28;1976;-76
2023/07/10 08:48:13;;;;;;;;;;;;;;;22.82;30.14;98155.78;4928651;28;1242;-77
2023/07/10 08:50:39;;;;;;;;;;;;;;;22.91;29.52;98155.16;4977390;28;1013;-76
2023/07/10 08:53:16;;;;;;;;;;;;;;;22.73;29.78;98156.44;4960933;28;1120;-77
2023/07/10 08:55:41;;;;;;;;;;;;;;;23.11;29.29;98152.94;4925942;28;959;-76
2023/07/10 08:58:07;;;;;;;;;;;;;;;22.95;29.75;98153.00;4957467;28;1082;-77
2023/07/10 09:00:36;;;;;;;;;;;;;;;23.09;29.43;98144.84;4941916;28;1008;-78
2023/07/10 09:03:23;;;;;;;;;;;;;;;23.04;29.32;98141.78;4941835;29;1060;-77
2023/07/10 09:05:49;;;;;;;;;;;;;;;22.92;29.83;98145.41;4941533;28;1927;-76
2023/07/10 09:08:15;;;;;;;;;;;;;;;23.13;29.07;98150.44;4922375;29;1343;-76
2023/07/10 09:10:41;;;;;;;;;;;;;;;22.91;29.43;98136.09;4960554;28;932;-77
2023/07/10 09:13:08;;;;;;;;;;;;;;;22.98;29.57;98140.75;4960290;28;1055;-77
2023/07/10 09:15:39;;;;;;;;;;;;;;;22.88;29.97;98146.28;4960837;28;989;-77
2023/07/10 09:18:07;;;;;;;;;;;;;;;23.02;29.80;98150.75;4960232;28;986;-77
2023/07/10 09:20:32;;;;;;;;;;;;;;;23.12;29.50;98146.00;4944400;28;1013;-77
2023/07/10 09:22:59;;;;;;;;;;;;;;;23.01;29.85;98139.88;4960063;28;1263;-77
2023/07/10 09:25:25;;;;;;;;;;;;;;;22.72;30.32;98149.16;4941309;29;1902;-76
2023/07/10 09:27:50;;;;;;;;;;;;;;;22.90;30.16;98136.53;4957303;28;964;-78
2023/07/10 09:30:21;;;;;;;;;;;;;;;23.02;29.99;98144.28;4956875;28;949;-77
2023/07/10 09:32:49;;;;;;;;;;;;;;;22.73;30.52;98133.75;4957348;28;881;-77
2023/07/10 09:35:15;;;;;;;;;;;;;;;22.83;30.16;98140.34;4956858;28;1196;-77
2023/07/10 09:37:41;;;;;;;;;;;;;;;22.92;30.03;98139.72;4956976;28;882;-76
2023/07/10 09:40:18;;;;;;;;;;;;;;;22.83;30.20;98143.97;4956956;28;872;-77
2023/07/10 09:42:44;;;;;;;;;;;;;;;23.08;29.77;98136.81;4956989;28;1086;-77
2023/07/10 09:45:11;;;;;;;;;;;;;;;23.09;29.43;98132.72;4962254;28;1983;-77
2023/07/10 09:47:40;;;;;;;;;;;;;;;22.70;30.52;98134.66;4944129;28;914;-77
2023/07/10 09:50:12;;;;;;;;;;;;;;;22.62;30.49;98136.09;4959895;28;1032;-77
2023/07/10 09:52:38;;;;;;;;;;;;;;;23.05;29.88;98129.19;4959895;28;1005;-77
2023/07/10 09:55:06;;;;;;;;;;;;;;;23.00;29.87;98129.75;4956720;28;908;-77
2023/07/10 09:57:32;;;;;;;;;;;;;;;22.93;30.11;98125.09;4956945;28;983;-77
2023/07/10 09:59:59;;;;;;;;;;;;;;;23.04;30.10;98131.22;4940162;29;986;-77
2023/07/10 10:02:38;;;;;;;;;;;;;;;23.11;30.04;98131.03;4947428;28;937;-77
2023/07/10 10:05:12;;;;;;;;;;;;;;;23.02;29.96;98127.25;4959621;28;1902;-77
2023/07/10 10:07:39;;;;;;;;;;;;;;;22.97;30.00;98122.16;4959724;28;1043;-77
2023/07/10 10:10:18;;;;;;;;;;;;;;;23.04;29.98;98119.09;4959916;28;922;-77
2023/07/10 10:12:44;;;;;;;;;;;;;;;23.01;29.86;98120.00;4918629;29;1353;-77
2023/07/10 10:15:29;;;;;;;;;;;;;;;23.06;29.78;98108.09;4902717;29;1097;-78
2023/07/10 10:17:57;;;;;;;;;;;;;;;23.28;29.58;98103.31;4918025;29;1026;-78
2023/07/10 10:20:27;;;;;;;;;;;;;;;23.13;29.81;98105.81;4918132;29;1125;-77
2023/07/10 10:22:53;;;;;;;;;;;;;;;23.08;29.80;98097.06;4918134;29;1377;-77
2023/07/10 10:25:19;;;;;;;;;;;;;;;22.89;30.26;98096.00;4918290;29;1915;-77
2023/07/10 10:27:47;;;;;;;;;;;;;;;22.89;30.47;98090.34;4924269;29;1250;-77
2023/07/10 10:30:31;;;;;;;;;;;;;;;23.22;29.61;98090.94;4956227;29;927;-77
2023/07/10 10:32:56;;;;;;;;;;;;;;;22.81;30.37;98084.06;4969528;28;968;-76
2023/07/10 10:35:22;;;;;;;;;;;;;;;22.75;30.49;98080.22;4959221;28;941;-78
2023/07/10 10:37:57;;;;;;;;;;;;;;;22.70;30.55;98082.81;4975396;28;924;-77
2023/07/10 10:40:23;;;;;;;;;;;;;;;22.70;30.47;98075.09;4959385;28;1164;-77
2023/07/10 10:42:54;;;;;;;;;;;;;;;22.79;30.46;98074.41;4966770;28;1051;-77
2023/07/10 10:45:40;;;;;;;;;;;;;;;23.08;29.99;98075.16;5002729;28;1906;-77
2023/07/10 10:48:24;;;;;;;;;;;;;;;22.95;30.30;98070.72;5018877;28;972;-77
2023/07/10 10:50:56;;;;;;;;;;;;;;;23.24;29.72;98068.56;5018445;28;922;-77
2023/07/10 10:53:25;;;;;;;;;;;;;;;23.14;30.14;98070.50;5019001;28;918;-77
2023/07/10 10:55:51;;;;;;;;;;;;;;;22.99;30.27;98060.06;5036093;28;955;-77
2023/07/10 10:58:19;;;;;;;;;;;;;;;22.90;30.07;98062.75;5035977;28;936;-77
2023/07/10 11:00:56;;;;;;;;;;;;;;;22.96;30.41;98064.59;5018773;28;943;-77
2023/07/10 11:03:30;;;;;;;;;;;;;;;23.11;30.08;98054.41;5036148;28;870;-77
2023/07/10 11:05:56;;;;;;;;;;;;;;;22.90;30.62;98062.75;5018616;28;1902;-77
2023/07/10 11:08:26;;;;;;;;;;;;;;;21.32;30.59;97811.53;4958741;28;1107;-77
2023/07/10 11:10:51;;;;;;;;;;;;;;;22.94;30.36;98058.56;4959837;28;909;-77
2023/07/10 11:13:23;;;;;;;;;;;;;;;22.95;30.34;98048.81;4963046;28;937;-76
2023/07/10 11:15:48;;;;;;;;;;;;;;;23.37;29.91;98051.53;4963013;28;923;-77
2023/07/10 11:18:15;;;;;;;;;;;;;;;23.21;30.25;98043.94;4962578;28;1015;-77
2023/07/10 11:20:40;;;;;;;;;;;;;;;23.15;30.08;98042.91;4946857;28;1075;-78
2023/07/10 11:23:16;;;;;;;;;;;;;;;23.20;30.18;98039.50;4924140;29;1411;-77
2023/07/10 11:25:43;;;;;;;;;;;;;;;23.34;29.82;98035.41;4937409;29;1940;-77
2023/07/10 11:28:18;;;;;;;;;;;;;;;23.16;29.97;98027.47;4908796;29;1208;-77
2023/07/10 11:30:43;;;;;;;;;;;;;;;23.12;30.42;98029.63;4908632;29;1126;-77
2023/07/10 11:33:16;;;;;;;;;;;;;;;23.01;30.59;98032.03;4924079;29;990;-77
2023/07/10 11:36:00;;;;;;;;;;;;;;;23.25;29.99;98036.09;4924308;29;1370;-77
2023/07/10 11:38:25;;;;;;;;;;;;;;;23.08;30.59;98037.47;4946550;28;1383;-77
2023/07/10 11:40:51;;;;;;;;;;;;;;;23.29;30.24;98033.13;4965480;28;1501;-77
2023/07/10 11:43:25;;;;;;;;;;;;;;;23.00;30.56;98033.25;4981352;28;1070;-77
2023/07/10 11:45:52;;;;;;;;;;;;;;;23.04;30.73;98028.25;4997521;28;1914;-77
2023/07/10 11:48:52;;;;;;;;;;;;;;;23.46;29.86;98025.28;4981262;28;944;-77
2023/07/10 11:51:24;;;;;;;;;;;;;;;23.48;29.57;98028.47;4955809;29;1019;-77
2023/07/10 11:54:05;;;;;;;;;;;;;;;23.08;30.49;98028.94;4939090;28;1666;-77
2023/07/10 11:56:31;;;;;;;;;;;;;;;22.92;30.82;98017.72;4978109;28;933;-77
2023/07/10 11:58:57;;;;;;;;;;;;;;;23.18;30.38;98021.34;4961790;28;1128;-77
2023/07/10 12:01:23;;;;;;;;;;;;;;;22.90;30.79;98020.19;4946437;28;1157;-77
2023/07/10 12:03:48;;;;;;;;;;;;;;;23.22;30.38;98016.34;4945892;28;978;-77
2023/07/10 12:06:15;;;;;;;;;;;;;;;23.17;30.45;98014.88;4961863;28;1898;-77
2023/07/10 12:08:40;;;;;;;;;;;;;;;22.93;30.89;98010.78;4945583;28;1120;-77
2023/07/10 12:11:20;;;;;;;;;;;;;;;23.33;29.88;98000.53;4961901;28;1215;-76
2023/07/10 12:13:45;;;;;;;;;;;;;;;23.27;29.98;97996.69;4975156;28;996;-77
2023/07/10 12:16:11;;;;;;;;;;;;;;;23.27;29.96;97999.53;4961664;28;992;-77
2023/07/10 12:18:38;;;;;;;;;;;;;;;23.15;30.19;97997.50;4961640;28;975;-77
2023/07/10 12:21:04;;;;;;;;;;;;;;;23.13;30.50;97995.13;4923567;29;1090;-77
2023/07/10 12:23:30;;;;;;;;;;;;;;;23.14;30.40;98001.59;4922411;29;1092;-77
2023/07/10 12:25:57;;;;;;;;;;;;;;;22.85;30.55;97988.31;4969103;28;1907;-77
2023/07/10 12:28:23;;;;;;;;;;;;;;;23.21;30.20;97995.69;4961196;28;1026;-77
2023/07/10 12:30:52;;;;;;;;;;;;;;;23.45;29.90;98003.81;4961820;28;995;-77
2023/07/10 12:33:33;;;;;;;;;;;;;;;23.32;29.80;98007.47;4945494;28;1170;-77
2023/07/10 12:36:07;;;;;;;;;;;;;;;23.13;30.34;98009.31;4945783;28;1251;-77
2023/07/10 12:38:33;;;;;;;;;;;;;;;23.25;30.23;98010.53;4961480;28;890;-77
2023/07/10 12:40:58;;;;;;;;;;;;;;;23.25;30.04;98004.84;4961364;28;961;-77
2023/07/10 12:43:24;;;;;;;;;;;;;;;23.46;29.89;97996.88;4961160;28;930;-77
2023/07/10 12:45:57;;;;;;;;;;;;;;;23.28;29.95;98003.97;4961488;28;1981;-77
2023/07/10 12:48:22;;;;;;;;;;;;;;;23.08;30.51;98001.38;4960988;28;944;-77
2023/07/10 12:50:50;;;;;;;;;;;;;;;22.97;30.44;98014.31;4919490;29;1082;-77
2023/07/10 12:53:22;;;;;;;;;;;;;;;23.21;30.18;98009.88;4942191;29;1023;-76
2023/07/10 12:55:48;;;;;;;;;;;;;;;23.06;30.39;97991.72;4926223;29;943;-77
2023/07/10 12:58:14;;;;;;;;;;;;;;;23.07;30.57;97993.31;4955535;29;1144;-77
2023/07/10 13:00:41;;;;;;;;;;;;;;;23.28;29.98;97998.28;4900589;29;1166;-77